Time;durP1;ratioP1;P1;durP2;ratioP2;P2;SDS_P1;SDS_P2;PMS_P1;PMS_P2;Temp;Humidity;BMP_temperature;BMP_pressure;BME280_temperature;BME280_humidity;BME280_pressure;Samples;Min_cycle;Max_cycle;Signal;HPM_P1;HPM_P2
2023/08/21 00:00:28;;;;;;;8.52;5.63;;;27.20;82.20;;;;;;5091412;28;20046;-77
2023/08/21 00:02:55;;;;;;;12.80;6.03;;;27.30;83.10;;;;;;5090382;28;20040;-78
2023/08/21 00:05:22;;;;;;;11.70;5.68;;;27.10;83.70;;;;;;5094519;28;20040;-76
2023/08/21 00:07:52;;;;;;;12.07;6.05;;;26.90;83.80;;;;;;5071727;28;20044;-78
2023/08/21 00:10:21;;;;;;;10.07;5.72;;;26.90;84.90;;;;;;5074799;28;20040;-77
2023/08/21 00:12:49;;;;;;;10.77;6.05;;;26.60;85.40;;;;;;5073065;28;20056;-78
2023/08/21 00:15:17;;;;;;;9.25;5.85;;;26.60;85.60;;;;;;5073773;28;20438;-78
2023/08/21 00:17:47;;;;;;;;;;;26.70;85.30;;;;;;5084893;28;20485;-76
2023/08/21 00:20:14;;;;;;;7.63;5.85;;;26.60;85.10;;;;;;5071943;28;20287;-79
2023/08/21 00:22:43;;;;;;;11.95;7.60;;;26.60;85.60;;;;;;5067187;28;20585;-75
2023/08/21 00:25:17;;;;;;;9.07;6.40;;;26.50;85.10;;;;;;5051002;28;20082;-77
2023/08/21 00:27:45;;;;;;;8.95;5.97;;;26.50;85.90;;;;;;5068630;28;20048;-77
2023/08/21 00:30:14;;;;;;;10.27;5.93;;;26.50;86.60;;;;;;5048368;28;20045;-77
2023/08/21 00:32:42;;;;;;;12.35;6.93;;;26.60;87.10;;;;;;5073126;28;20062;-78
2023/08/21 00:35:14;;;;;;;8.88;6.00;;;26.40;87.00;;;;;;5060325;28;20177;-78
2023/08/21 00:37:46;;;;;;;12.02;6.05;;;26.30;87.40;;;;;;5063150;28;20045;-77
2023/08/21 00:40:18;;;;;;;11.35;6.13;;;26.30;87.20;;;;;;5068833;28;20072;-79
2023/08/21 00:42:49;;;;;;;11.05;6.53;;;26.20;87.40;;;;;;5077343;28;20044;-76
2023/08/21 00:45:16;;;;;;;10.73;5.97;;;26.30;87.90;;;;;;5061009;28;20039;-76
2023/08/21 00:48:11;;;;;;;9.32;6.10;;;26.30;87.50;;;;;;5064744;28;20548;-79
2023/08/21 00:50:39;;;;;;;10.75;5.70;;;26.30;87.80;;;;;;5064336;28;20052;-77
2023/08/21 00:53:09;;;;;;;9.07;6.47;;;26.30;88.30;;;;;;5071586;28;20048;-77
2023/08/21 00:55:39;;;;;;;8.70;6.25;;;26.20;87.80;;;;;;5052694;28;20046;-76
2023/08/21 00:58:08;;;;;;;11.45;5.85;;;26.20;88.00;;;;;;5070020;28;20041;-77
2023/08/21 01:00:36;;;;;;;9.13;5.75;;;26.30;87.90;;;;;;5069785;28;20063;-77
2023/08/21 01:03:04;;;;;;;11.05;5.95;;;26.30;87.60;;;;;;5067428;28;20032;-77
2023/08/21 01:05:31;;;;;;;9.40;6.25;;;26.40;87.20;;;;;;5064271;28;20045;-76
2023/08/21 01:08:05;;;;;;;9.98;5.45;;;26.30;87.30;;;;;;5065011;28;20028;-77
2023/08/21 01:10:51;;;;;;;9.50;5.82;;;26.20;87.40;;;;;;5071888;28;20479;-78
2023/08/21 01:13:43;;;;;;;10.20;6.05;;;26.20;87.80;;;;;;5066662;28;20102;-76
2023/08/21 01:16:14;;;;;;;10.45;6.10;;;26.10;89.10;;;;;;5069156;28;20033;-76
2023/08/21 01:18:43;;;;;;;10.25;5.68;;;26.00;89.80;;;;;;5073867;28;20040;-77
2023/08/21 01:21:12;;;;;;;10.07;6.10;;;26.00;89.70;;;;;;5070982;28;20418;-78
2023/08/21 01:23:44;;;;;;;11.07;6.13;;;26.10;89.80;;;;;;5071113;28;20354;-77
2023/08/21 01:26:11;;;;;;;13.13;6.22;;;26.00;89.80;;;;;;5063349;28;20599;-77
2023/08/21 01:28:39;;;;;;;12.27;6.03;;;25.80;90.20;;;;;;5068749;28;20094;-77
2023/08/21 01:31:18;;;;;;;9.65;6.32;;;25.60;90.60;;;;;;5069373;28;20119;-79
2023/08/21 01:33:49;;;;;;;10.60;6.28;;;25.60;90.60;;;;;;5073626;28;20036;-77
2023/08/21 01:36:18;;;;;;;13.57;6.57;;;25.80;90.50;;;;;;5066321;28;20048;-78
2023/08/21 01:38:46;;;;;;;11.05;6.63;;;25.90;90.40;;;;;;5068386;28;20048;-78
2023/08/21 01:41:14;;;;;;;10.57;6.70;;;25.90;90.40;;;;;;5072934;28;20049;-77
2023/08/21 01:43:41;;;;;;;9.52;6.28;;;26.00;90.30;;;;;;5045536;28;20049;-79
2023/08/21 01:46:09;;;;;;;11.48;6.15;;;25.90;90.20;;;;;;5072512;28;20125;-81
2023/08/21 01:48:37;;;;;;;11.70;6.28;;;25.90;90.60;;;;;;5069289;28;20056;-76
2023/08/21 01:51:04;;;;;;;10.13;6.40;;;26.00;90.50;;;;;;5048271;28;20409;-76
2023/08/21 01:53:32;;;;;;;12.65;6.70;;;25.80;90.40;;;;;;5048697;28;20631;-77
2023/08/21 01:55:59;;;;;;;11.35;6.13;;;25.80;90.40;;;;;;5071418;28;20123;-76
2023/08/21 01:58:26;;;;;;;13.18;6.22;;;25.70;90.50;;;;;;5066410;28;20119;-80
2023/08/21 02:00:54;;;;;;;11.35;6.15;;;25.70;90.60;;;;;;5063469;28;20134;-77
2023/08/21 02:03:21;;;;;;;11.38;6.88;;;25.70;90.60;;;;;;5066369;28;20565;-78
2023/08/21 02:05:49;;;;;;;12.90;6.53;;;25.60;90.80;;;;;;5061758;28;20051;-76
2023/08/21 02:08:17;;;;;;;10.68;6.53;;;25.60;90.90;;;;;;5051880;28;20468;-77
2023/08/21 02:10:52;;;;;;;10.88;6.53;;;25.50;90.90;;;;;;5060905;28;20090;-76
2023/08/21 02:13:19;;;;;;;10.40;6.40;;;25.60;91.00;;;;;;5065244;28;20051;-74
2023/08/21 02:15:47;;;;;;;9.57;6.45;;;25.50;91.10;;;;;;5068074;28;20037;-77
2023/08/21 02:18:14;;;;;;;9.13;6.72;;;25.50;91.10;;;;;;5068197;28;20384;-75
2023/08/21 02:20:43;;;;;;;13.90;6.28;;;25.40;91.20;;;;;;5060402;28;20055;-75
2023/08/21 02:23:10;;;;;;;15.65;7.05;;;25.50;91.20;;;;;;5051481;28;20487;-79
2023/08/21 02:25:37;;;;;;;9.88;6.45;;;25.40;91.10;;;;;;5050762;28;20106;-75
2023/08/21 02:28:05;;;;;;;8.40;6.13;;;25.30;91.70;;;;;;5062246;28;20416;-77
2023/08/21 02:30:33;;;;;;;8.90;6.03;;;25.20;91.90;;;;;;5065053;28;20041;-77
2023/08/21 02:33:00;;;;;;;9.27;6.47;;;25.10;91.70;;;;;;5069960;28;20028;-76
2023/08/21 02:35:27;;;;;;;8.80;6.75;;;25.00;91.90;;;;;;5067942;28;20115;-77
2023/08/21 02:37:54;;;;;;;8.48;6.85;;;25.00;92.20;;;;;;5057263;28;20032;-75
2023/08/21 02:40:22;;;;;;;10.18;6.60;;;25.10;92.40;;;;;;5066340;28;20086;-78
2023/08/21 02:42:49;;;;;;;11.45;6.10;;;25.00;92.20;;;;;;5065123;28;20052;-76
2023/08/21 02:45:18;;;;;;;9.35;7.03;;;25.00;92.50;;;;;;5064193;28;20065;-79
2023/08/21 02:47:47;;;;;;;12.43;6.43;;;25.00;92.50;;;;;;5051645;28;20032;-78
2023/08/21 02:50:14;;;;;;;11.15;6.57;;;24.90;92.90;;;;;;5066868;28;20051;-78
2023/08/21 02:52:41;;;;;;;11.07;6.13;;;24.80;93.10;;;;;;5061708;28;20071;-77
2023/08/21 02:55:09;;;;;;;8.82;6.43;;;24.80;93.20;;;;;;5067553;28;20378;-77
2023/08/21 02:57:36;;;;;;;9.05;6.63;;;24.80;93.40;;;;;;5072131;28;20052;-76
2023/08/21 03:00:04;;;;;;;8.93;6.20;;;24.80;93.60;;;;;;5069913;28;20080;-77
2023/08/21 03:02:32;;;;;;;8.13;5.72;;;24.90;93.10;;;;;;5064614;28;20368;-77
2023/08/21 03:05:00;;;;;;;10.75;6.15;;;24.90;93.40;;;;;;5069578;28;20037;-76
2023/08/21 03:07:27;;;;;;;11.45;6.05;;;24.70;93.90;;;;;;5062991;28;21450;-77
2023/08/21 03:09:54;;;;;;;9.20;6.82;;;24.70;93.90;;;;;;5068287;28;20039;-77
2023/08/21 03:12:22;;;;;;;8.90;6.07;;;24.70;94.30;;;;;;5066892;28;20036;-76
2023/08/21 03:14:49;;;;;;;12.57;6.60;;;24.70;94.20;;;;;;5069200;28;20383;-76
2023/08/21 03:17:16;;;;;;;10.30;7.03;;;24.60;94.60;;;;;;5068229;28;20036;-76
2023/08/21 03:19:43;;;;;;;12.10;6.45;;;24.60;95.20;;;;;;5070682;28;20040;-76
2023/08/21 03:22:11;;;;;;;10.18;6.30;;;24.60;94.70;;;;;;5063301;28;20072;-77
2023/08/21 03:24:38;;;;;;;9.98;6.28;;;24.70;95.00;;;;;;5064352;28;20416;-76
2023/08/21 03:27:05;;;;;;;9.75;6.38;;;24.70;95.10;;;;;;5071987;28;20365;-77
2023/08/21 03:29:32;;;;;;;8.65;6.15;;;24.60;95.20;;;;;;5066374;28;20464;-76
2023/08/21 03:32:00;;;;;;;11.73;6.90;;;24.60;95.60;;;;;;5072125;28;20376;-78
2023/08/21 03:34:27;;;;;;;12.52;6.50;;;24.60;95.80;;;;;;5073069;28;20038;-77
2023/08/21 03:36:55;;;;;;;10.05;6.03;;;24.60;95.70;;;;;;5065657;28;20053;-77
2023/08/21 03:39:22;;;;;;;9.77;7.13;;;24.50;96.20;;;;;;5066581;28;20379;-78
2023/08/21 03:41:49;;;;;;;10.07;6.72;;;24.50;96.20;;;;;;5052286;28;20116;-78
2023/08/21 03:44:16;;;;;;;9.90;6.68;;;24.50;96.10;;;;;;5069376;28;20037;-76
2023/08/21 03:46:45;;;;;;;10.65;6.80;;;24.50;96.40;;;;;;5053544;28;20128;-79
2023/08/21 03:49:13;;;;;;;10.85;6.32;;;24.20;96.60;;;;;;5070790;28;20039;-80
2023/08/21 03:51:40;;;;;;;10.45;6.90;;;24.10;96.70;;;;;;5074642;28;20115;-78
2023/08/21 03:54:09;;;;;;;11.30;7.35;;;24.10;97.00;;;;;;5069510;28;20495;-78
2023/08/21 03:56:36;;;;;;;10.32;7.13;;;24.20;96.90;;;;;;5063383;28;20059;-76
2023/08/21 03:59:04;;;;;;;10.07;6.68;;;24.20;97.10;;;;;;5058009;28;20484;-78
2023/08/21 04:01:31;;;;;;;10.30;6.82;;;24.30;97.10;;;;;;5068230;28;20041;-77
2023/08/21 04:03:58;;;;;;;9.32;6.97;;;24.30;97.20;;;;;;5073304;28;20028;-77
2023/08/21 04:06:25;;;;;;;10.27;6.82;;;24.30;97.60;;;;;;5066177;28;20086;-78
2023/08/21 04:08:52;;;;;;;11.73;6.75;;;24.40;97.60;;;;;;5071107;28;20051;-78
2023/08/21 04:11:20;;;;;;;14.15;6.60;;;24.20;97.50;;;;;;5070265;28;20036;-77
2023/08/21 04:13:47;;;;;;;14.27;7.50;;;24.10;97.80;;;;;;5070377;28;20039;-78
2023/08/21 04:16:15;;;;;;;11.68;7.28;;;24.10;98.10;;;;;;5063827;28;20065;-77
2023/08/21 04:18:43;;;;;;;11.05;6.95;;;24.10;98.10;;;;;;5065265;28;20041;-76
2023/08/21 04:21:10;;;;;;;13.45;6.93;;;24.10;98.20;;;;;;5070535;28;20386;-77
2023/08/21 04:23:37;;;;;;;10.00;6.80;;;24.10;98.20;;;;;;5071801;28;20078;-75
2023/08/21 04:26:05;;;;;;;12.95;7.00;;;24.20;98.50;;;;;;5072528;28;20032;-78
2023/08/21 04:28:33;;;;;;;9.43;6.82;;;24.40;98.50;;;;;;5072899;28;20038;-78
2023/08/21 04:31:04;;;;;;;9.98;7.10;;;24.50;98.30;;;;;;5069564;28;20042;-75
2023/08/21 04:33:32;;;;;;;12.25;6.93;;;24.40;98.30;;;;;;5066285;28;20032;-75
2023/08/21 04:35:59;;;;;;;10.43;7.05;;;24.40;98.10;;;;;;5057478;28;20552;-75
2023/08/21 04:38:26;;;;;;;10.13;7.18;;;24.40;98.20;;;;;;5068366;28;20024;-75
2023/08/21 04:40:54;;;;;;;9.95;6.55;;;24.40;98.60;;;;;;5066242;28;20051;-75
2023/08/21 04:43:21;;;;;;;9.85;6.45;;;24.30;98.60;;;;;;5067851;28;20030;-76
2023/08/21 04:45:54;;;;;;;10.18;7.18;;;24.30;99.00;;;;;;5061508;28;20053;-77
2023/08/21 04:48:22;;;;;;;10.15;6.50;;;24.40;99.10;;;;;;5064665;28;20206;-77
2023/08/21 04:50:50;;;;;;;14.95;6.93;;;24.50;98.80;;;;;;5071332;28;20549;-77
2023/08/21 04:53:17;;;;;;;11.55;7.15;;;24.40;98.70;;;;;;5065883;28;20506;-78
2023/08/21 04:55:45;;;;;;;10.25;6.93;;;24.40;99.00;;;;;;5069450;28;20040;-76
2023/08/21 04:58:14;;;;;;;81.55;57.13;;;24.50;99.10;;;;;;5068917;28;20528;-74
2023/08/21 05:00:41;;;;;;;37.55;28.25;;;24.60;98.80;;;;;;5067787;28;20045;-77
2023/08/21 05:03:09;;;;;;;168.95;125.20;;;24.50;99.40;;;;;;5070491;28;20480;-75
2023/08/21 05:05:36;;;;;;;81.05;58.25;;;24.70;98.90;;;;;;5064842;28;20082;-76
2023/08/21 05:08:04;;;;;;;194.27;128.45;;;24.90;99.00;;;;;;5059030;28;20055;-74
2023/08/21 05:10:31;;;;;;;64.07;43.53;;;24.90;98.20;;;;;;5072183;28;20044;-76
2023/08/21 05:13:05;;;;;;;33.58;24.40;;;24.80;98.40;;;;;;5063993;28;20107;-75
2023/08/21 05:15:33;;;;;;;47.33;31.92;;;24.90;99.20;;;;;;5055374;28;20036;-80
2023/08/21 05:18:02;;;;;;;33.92;23.35;;;24.90;99.20;;;;;;5052067;28;20169;-79
2023/08/21 05:20:29;;;;;;;15.57;11.63;;;24.80;99.40;;;;;;5070596;28;20036;-79
2023/08/21 05:22:56;;;;;;;27.63;19.73;;;24.80;99.20;;;;;;5065169;28;20033;-80
2023/08/21 05:25:26;;;;;;;;;;;25.00;99.90;;;;;;5058519;28;20072;-80
2023/08/21 05:27:54;;;;;;;24.25;14.73;;;25.10;99.90;;;;;;5067582;28;19920;-78
2023/08/21 05:30:21;;;;;;;22.73;13.63;;;25.10;99.90;;;;;;5065961;28;20070;-77
2023/08/21 05:32:48;;;;;;;22.70;11.98;;;25.20;99.90;;;;;;5066607;28;20536;-77
2023/08/21 05:35:15;;;;;;;18.77;10.93;;;25.10;99.90;;;;;;5050409;28;20048;-79
2023/08/21 05:37:43;;;;;;;17.27;8.90;;;24.90;99.90;;;;;;5070443;28;20067;-77
2023/08/21 05:40:11;;;;;;;12.20;8.75;;;24.80;99.90;;;;;;5071163;28;20124;-78
2023/08/21 05:42:41;;;;;;;13.18;8.57;;;24.70;99.90;;;;;;5075019;28;20111;-80
2023/08/21 05:45:08;;;;;;;15.27;10.02;;;24.90;99.90;;;;;;5068594;28;20120;-78
2023/08/21 05:47:35;;;;;;;14.02;8.52;;;24.70;99.80;;;;;;5064288;28;20039;-77
2023/08/21 05:50:04;;;;;;;15.00;7.88;;;24.50;99.90;;;;;;5067632;28;20036;-78
2023/08/21 05:52:31;;;;;;;17.95;11.77;;;24.40;99.90;;;;;;5068350;28;20411;-77
2023/08/21 05:54:59;;;;;;;74.03;50.45;;;24.50;99.90;;;;;;5067081;28;20036;-77
2023/08/21 05:57:28;;;;;;;162.45;113.28;;;24.40;99.90;;;;;;5071636;28;20032;-79
2023/08/21 05:59:55;;;;;;;101.47;74.30;;;24.50;99.90;;;;;;5068135;28;20373;-76
2023/08/21 06:02:23;;;;;;;86.18;58.47;;;24.70;99.90;;;;;;5065428;28;20032;-76
2023/08/21 06:04:52;;;;;;;67.30;46.75;;;24.80;99.90;;;;;;5072912;28;20395;-78
2023/08/21 06:07:20;;;;;;;34.53;24.17;;;25.00;99.90;;;;;;5066295;28;20107;-77
2023/08/21 06:09:47;;;;;;;30.13;16.98;;;25.10;99.90;;;;;;5068603;28;20042;-77
2023/08/21 06:12:15;;;;;;;24.60;15.52;;;25.10;99.90;;;;;;5072768;28;20051;-78
2023/08/21 06:14:42;;;;;;;24.70;16.25;;;25.20;99.90;;;;;;5070705;28;20025;-77
2023/08/21 06:17:11;;;;;;;21.77;13.88;;;25.30;99.90;;;;;;5070697;28;20115;-77
2023/08/21 06:19:38;;;;;;;12.90;10.23;;;25.30;99.90;;;;;;5070009;28;20040;-76
2023/08/21 06:22:05;;;;;;;15.25;9.30;;;25.30;99.90;;;;;;5063790;28;20037;-77
2023/08/21 06:24:37;;;;;;;14.82;10.77;;;25.40;99.90;;;;;;5074849;28;20033;-78
2023/08/21 06:27:06;;;;;;;15.63;11.43;;;25.60;99.90;;;;;;5070369;28;20037;-79
2023/08/21 06:29:37;;;;;;;15.05;9.85;;;25.60;99.90;;;;;;5068261;28;20071;-76
2023/08/21 06:32:05;;;;;;;16.00;10.48;;;25.60;99.90;;;;;;5070825;28;20036;-78
2023/08/21 06:34:34;;;;;;;14.55;8.95;;;25.70;99.90;;;;;;5072629;28;20039;-77
2023/08/21 06:37:01;;;;;;;21.85;10.10;;;25.70;99.90;;;;;;5054968;28;20042;-77
2023/08/21 06:39:28;;;;;;;14.05;9.23;;;25.80;99.90;;;;;;5072802;28;20051;-79
2023/08/21 06:41:55;;;;;;;16.17;8.73;;;25.70;99.90;;;;;;5069336;28;20041;-78
2023/08/21 06:44:23;;;;;;;12.50;8.80;;;25.80;99.90;;;;;;5067462;28;20428;-78
2023/08/21 06:46:52;;;;;;;11.82;7.50;;;25.80;99.90;;;;;;5066813;28;20045;-79
2023/08/21 06:49:25;;;;;;;12.65;9.13;;;25.80;99.90;;;;;;5061179;28;20071;-78
2023/08/21 06:51:53;;;;;;;10.45;8.23;;;25.90;99.90;;;;;;5066690;28;20115;-76
2023/08/21 06:54:22;;;;;;;11.63;8.25;;;25.90;99.90;;;;;;5071029;28;20120;-77
2023/08/21 06:56:49;;;;;;;12.95;8.45;;;26.00;99.90;;;;;;5054712;28;20041;-79
2023/08/21 06:59:17;;;;;;;14.65;9.02;;;25.90;99.90;;;;;;5064843;28;20037;-76
2023/08/21 07:01:44;;;;;;;14.90;9.05;;;26.00;99.90;;;;;;5065847;28;20036;-78
2023/08/21 07:04:13;;;;;;;16.35;8.90;;;26.10;99.90;;;;;;5053882;28;20032;-77
2023/08/21 07:06:42;;;;;;;12.77;8.30;;;26.20;99.90;;;;;;5074567;28;20040;-76
2023/08/21 07:09:12;;;;;;;12.52;7.90;;;26.20;99.60;;;;;;5068363;28;20033;-76
2023/08/21 07:11:40;;;;;;;13.80;7.97;;;26.20;99.90;;;;;;5073065;28;20032;-78
2023/08/21 07:14:08;;;;;;;12.98;9.10;;;26.20;99.90;;;;;;5070221;28;20045;-77
2023/08/21 07:16:36;;;;;;;11.68;8.50;;;26.30;99.90;;;;;;5065575;28;20028;-75
2023/08/21 07:19:03;;;;;;;12.18;8.70;;;26.40;99.90;;;;;;5068414;28;20068;-77
2023/08/21 07:21:30;;;;;;;13.35;8.32;;;26.50;99.90;;;;;;5063839;28;20025;-76
2023/08/21 07:24:00;;;;;;;18.73;8.57;;;26.50;99.90;;;;;;5052726;28;20032;-78
2023/08/21 07:26:30;;;;;;;13.68;8.70;;;26.50;99.90;;;;;;5070983;28;20041;-77
2023/08/21 07:28:57;;;;;;;13.45;8.00;;;26.70;99.90;;;;;;5041407;28;20101;-77
2023/08/21 07:31:24;;;;;;;13.48;7.97;;;26.80;99.90;;;;;;5072473;28;20033;-76
2023/08/21 07:33:52;;;;;;;14.15;8.35;;;26.80;99.90;;;;;;5067403;28;20037;-76
2023/08/21 07:36:22;;;;;;;18.92;8.50;;;26.90;99.90;;;;;;5076132;28;20033;-77
2023/08/21 07:38:50;;;;;;;11.93;8.38;;;26.90;99.90;;;;;;5071852;28;20131;-77
2023/08/21 07:41:17;;;;;;;11.75;8.82;;;27.00;99.90;;;;;;5072623;28;20484;-78
2023/08/21 07:43:45;;;;;;;14.80;8.88;;;27.00;99.90;;;;;;5071624;28;20032;-77
2023/08/21 07:46:15;;;;;;;10.80;8.13;;;27.10;99.90;;;;;;5073129;28;20068;-77
2023/08/21 07:48:44;;;;;;;13.40;7.63;;;27.10;99.90;;;;;;5069554;28;20063;-75
2023/08/21 07:51:13;;;;;;;11.13;7.97;;;27.20;98.80;;;;;;5079247;28;20036;-78
2023/08/21 07:53:40;;;;;;;13.90;8.52;;;27.20;98.70;;;;;;5069528;28;20120;-78
2023/08/21 07:56:08;;;;;;;12.73;8.10;;;27.30;98.80;;;;;;5072665;28;20573;-76
2023/08/21 07:58:37;;;;;;;11.68;8.48;;;27.40;98.50;;;;;;5070122;28;20044;-77
2023/08/21 08:01:07;;;;;;;11.18;7.03;;;27.50;99.80;;;;;;5072693;28;20122;-77
2023/08/21 08:03:34;;;;;;;;;;;27.50;97.70;;;;;;5066395;28;20036;-76
2023/08/21 08:06:01;;;;;;;11.82;7.60;;;27.60;97.30;;;;;;5063152;28;19932;-77
2023/08/21 08:08:29;;;;;;;12.60;7.72;;;27.60;97.80;;;;;;5071757;28;20064;-78
2023/08/21 08:11:02;;;;;;;8.90;7.00;;;27.60;97.40;;;;;;5067244;28;20046;-78
2023/08/21 08:13:31;;;;;;;10.95;7.47;;;27.70;96.30;;;;;;5070781;28;20064;-77
2023/08/21 08:15:58;;;;;;;10.50;7.03;;;27.90;95.90;;;;;;5070890;28;20036;-77
2023/08/21 08:18:26;;;;;;;12.27;6.32;;;27.80;95.80;;;;;;5074914;28;20067;-76
2023/08/21 08:20:53;;;;;;;10.30;7.05;;;27.90;95.00;;;;;;5070339;28;20043;-77
2023/08/21 08:23:23;;;;;;;8.90;5.70;;;27.90;95.20;;;;;;5070951;28;20029;-77
2023/08/21 08:25:53;;;;;;;13.73;6.50;;;28.00;94.80;;;;;;5067200;28;20037;-77
2023/08/21 08:28:20;;;;;;;8.93;6.17;;;28.10;94.00;;;;;;5069114;28;20028;-78
2023/08/21 08:30:48;;;;;;;7.28;5.65;;;28.20;93.50;;;;;;5060655;28;20037;-78
2023/08/21 08:33:15;;;;;;;14.77;6.60;;;28.40;93.60;;;;;;5063382;28;20036;-81
2023/08/21 08:35:45;;;;;;;24.75;7.60;;;28.20;93.70;;;;;;5065024;28;20036;-81
2023/08/21 08:38:13;;;;;;;11.10;6.18;;;28.30;93.00;;;;;;5051987;28;20045;-81
2023/08/21 08:40:45;;;;;;;11.73;6.05;;;28.30;92.90;;;;;;5074783;28;20052;-81
2023/08/21 08:43:17;;;;;;;12.35;5.60;;;28.50;92.30;;;;;;5073172;28;20033;-81
2023/08/21 08:46:02;;;;;;;12.38;6.63;;;28.60;91.40;;;;;;5068629;28;20150;-80
2023/08/21 08:48:33;;;;;;;13.10;6.65;;;28.60;91.90;;;;;;5050333;28;20029;-78
2023/08/21 08:51:04;;;;;;;8.88;6.43;;;28.70;92.50;;;;;;5050327;28;20042;-80
2023/08/21 08:53:32;;;;;;;10.43;6.82;;;28.80;91.90;;;;;;5066851;28;20052;-77
2023/08/21 08:56:00;;;;;;;10.40;7.22;;;28.90;94.70;;;;;;5065681;28;20037;-83
2023/08/21 08:58:28;;;;;;;9.18;7.07;;;29.00;91.50;;;;;;5063382;28;20043;-79
2023/08/21 09:00:58;;;;;;;11.70;6.70;;;29.10;91.40;;;;;;5069603;28;20696;-82
2023/08/21 09:03:26;;;;;;;;;;;29.30;91.60;;;;;;5034114;28;20047;-79
2023/08/21 09:05:53;;;;;;;28.30;16.38;;;29.20;92.20;;;;;;5049746;28;19942;-80
2023/08/21 09:08:20;;;;;;;18.85;12.27;;;29.30;91.60;;;;;;5061441;28;20040;-82
2023/08/21 09:10:54;;;;;;;9.93;7.75;;;29.60;90.40;;;;;;5067577;28;20080;-81
2023/08/21 09:13:32;;;;;;;12.13;6.85;;;29.80;90.50;;;;;;5055699;28;20037;-81
2023/08/21 09:16:01;;;;;;;24.80;15.70;;;30.00;90.70;;;;;;5049694;28;20060;-81
2023/08/21 09:18:58;;;;;;;25.42;13.27;;;30.00;90.50;;;;;;5071742;28;20063;-83
2023/08/21 09:21:27;;;;;;;31.42;19.38;;;29.80;90.60;;;;;;5075416;28;20063;-80
2023/08/21 09:24:02;;;;;;;17.08;9.07;;;29.50;90.50;;;;;;5072844;28;20036;-80
2023/08/21 09:26:32;;;;;;;10.07;6.10;;;29.90;89.30;;;;;;5068514;28;20056;-84
2023/08/21 09:29:05;;;;;;;12.90;5.57;;;30.30;85.90;;;;;;5035561;28;20033;-83
2023/08/21 09:31:39;;;;;;;10.05;5.80;;;30.50;85.50;;;;;;5066985;28;20068;-84
2023/08/21 09:34:20;;;;;;;7.47;4.97;;;30.60;83.90;;;;;;5065979;28;20124;-80
2023/08/21 09:36:57;;;;;;;11.02;5.30;;;30.60;83.80;;;;;;5075850;28;20049;-81
2023/08/21 09:39:33;;;;;;;8.02;5.55;;;30.80;83.20;;;;;;5073342;28;20092;-82
2023/08/21 09:42:11;;;;;;;8.48;5.25;;;30.80;82.90;;;;;;5063659;28;20048;-80
2023/08/21 09:44:43;;;;;;;8.27;5.40;;;30.70;81.40;;;;;;5064303;28;20029;-80
2023/08/21 09:47:15;;;;;;;10.27;6.05;;;30.90;80.30;;;;;;5068324;28;20492;-81
2023/08/21 09:49:52;;;;;;;8.38;5.35;;;31.00;80.60;;;;;;5069677;28;20278;-81
2023/08/21 09:52:24;;;;;;;9.65;5.35;;;31.30;79.10;;;;;;5067756;28;20036;-83
2023/08/21 09:55:29;;;;;;;7.72;5.65;;;31.50;81.80;;;;;;5066232;28;20051;-79
2023/08/21 09:58:02;;;;;;;8.65;6.15;;;31.00;80.60;;;;;;5081047;28;20372;-84
2023/08/21 10:00:55;;;;;;;10.90;5.68;;;31.20;81.10;;;;;;5055056;28;20047;-83
2023/08/21 10:03:42;;;;;;;10.35;5.32;;;31.30;79.60;;;;;;5078133;28;20044;-85
2023/08/21 10:06:12;;;;;;;10.13;5.43;;;31.70;77.50;;;;;;5075904;28;20104;-81
2023/08/21 10:08:55;;;;;;;7.00;4.97;;;31.70;78.60;;;;;;5022662;28;20045;-83
2023/08/21 10:11:23;;;;;;;12.25;6.10;;;31.70;77.30;;;;;;5065186;28;20071;-80
2023/08/21 10:13:57;;;;;;;9.43;5.43;;;31.80;77.10;;;;;;5084698;28;20053;-81
2023/08/21 10:17:07;;;;;;;7.30;5.50;;;31.90;76.40;;;;;;5071006;28;20045;-80
2023/08/21 10:19:54;;;;;;;8.27;5.63;;;31.90;76.60;;;;;;5084024;28;20067;-82
2023/08/21 10:22:50;;;;;;;8.85;5.72;;;32.10;77.90;;;;;;5057264;28;20041;-81
2023/08/21 10:25:31;;;;;;;9.95;6.82;;;31.30;78.50;;;;;;5064398;28;20565;-81
2023/08/21 10:28:05;;;;;;;7.80;5.25;;;31.30;78.90;;;;;;5058070;28;20033;-82
2023/08/21 10:30:49;;;;;;;10.73;5.80;;;31.40;76.70;;;;;;5081369;28;20037;-81
2023/08/21 10:33:47;;;;;;;9.55;5.55;;;31.40;78.00;;;;;;5062518;28;20044;-82
2023/08/21 10:36:44;;;;;;;9.07;5.55;;;31.60;76.60;;;;;;5050232;28;20044;-81
2023/08/21 10:39:26;;;;;;;6.90;4.85;;;31.80;75.70;;;;;;5062719;28;20064;-82
2023/08/21 10:42:03;;;;;;;7.95;5.15;;;32.00;75.20;;;;;;5056987;28;20053;-82
2023/08/21 10:45:13;;;;;;;;;;;;;;;;;;;;;
2023/08/21 10:47:46;;;;;;;10.15;4.82;;;31.80;74.50;;;;;;5087008;28;20033;-83
2023/08/21 10:50:19;;;;;;;9.57;5.20;;;32.30;74.40;;;;;;5084842;28;20088;-84
2023/08/21 10:53:04;;;;;;;49.35;39.63;;;32.50;73.00;;;;;;5065978;28;20037;-80
2023/08/21 10:56:03;;;;;;;13.20;9.80;;;32.20;71.30;;;;;;5054646;28;20033;-79
2023/08/21 10:58:51;;;;;;;28.73;20.27;;;31.80;73.80;;;;;;5069557;28;20394;-79
2023/08/21 11:01:23;;;;;;;13.52;10.65;;;31.50;71.30;;;;;;5074668;28;20063;-79
2023/08/21 11:04:17;;;;;;;11.65;7.00;;;31.60;73.10;;;;;;5063683;28;20041;-82
2023/08/21 11:06:50;;;;;;;14.75;9.80;;;32.30;72.20;;;;;;5037848;28;20143;-78
2023/08/21 11:09:43;;;;;;;13.60;9.77;;;32.60;72.50;;;;;;5071830;28;20061;-80
2023/08/21 11:12:25;;;;;;;21.27;11.52;;;32.80;71.40;;;;;;5057922;28;20032;-79
2023/08/21 11:15:13;;;;;;;14.80;8.40;;;32.80;72.00;;;;;;5052485;28;20045;-79
2023/08/21 11:18:25;;;;;;;10.10;7.05;;;32.80;71.50;;;;;;5046903;28;20039;-81
2023/08/21 11:21:08;;;;;;;9.15;5.63;;;32.90;71.50;;;;;;5013526;28;20049;-80
2023/08/21 11:23:42;;;;;;;8.75;5.40;;;33.20;70.50;;;;;;5052644;28;20041;-81
2023/08/21 11:26:12;;;;;;;9.02;5.10;;;33.10;70.30;;;;;;5049203;28;20043;-81
2023/08/21 11:28:52;;;;;;;10.18;4.97;;;33.20;69.70;;;;;;5025948;28;20109;-81
2023/08/21 11:31:31;;;;;;;11.93;5.28;;;33.40;69.10;;;;;;5056650;28;20107;-82
2023/08/21 11:34:03;;;;;;;7.50;5.05;;;33.60;69.40;;;;;;5068696;28;20679;-83
2023/08/21 11:39:50;;;;;;;7.85;5.40;;;34.10;68.80;;;;;;5211548;23;20048;-85
2023/08/21 11:42:36;;;;;;;9.73;5.40;;;34.20;67.40;;;;;;4872199;29;20454;-83
2023/08/21 11:45:07;;;;;;;9.85;5.78;;;34.30;67.80;;;;;;4875479;29;20061;-84
2023/08/21 11:47:41;;;;;;;10.35;5.30;;;34.30;68.40;;;;;;4851804;29;20040;-80
2023/08/21 11:50:27;;;;;;;9.00;5.32;;;34.30;68.00;;;;;;4891745;29;20362;-86
2023/08/21 11:52:58;;;;;;;10.80;5.50;;;34.00;68.00;;;;;;4887612;29;20389;-83
2023/08/21 11:55:29;;;;;;;9.85;5.78;;;33.80;68.60;;;;;;4878296;29;20041;-83
2023/08/21 11:58:09;;;;;;;7.97;4.88;;;33.90;68.40;;;;;;4893380;29;20049;-86
2023/08/21 12:01:04;;;;;;;9.80;4.90;;;34.10;67.60;;;;;;4859932;29;20081;-83
2023/08/21 12:03:54;;;;;;;6.43;4.72;;;34.50;67.40;;;;;;4867681;29;20060;-86
2023/08/21 12:06:32;;;;;;;11.88;6.18;;;34.80;67.00;;;;;;4886436;29;20402;-85
2023/08/21 12:09:04;;;;;;;8.93;5.25;;;34.90;66.60;;;;;;4891381;29;20045;-84
2023/08/21 12:11:34;;;;;;;7.53;5.10;;;35.10;66.20;;;;;;4888259;29;20048;-84
2023/08/21 12:25:42;;;;;;;9.55;5.35;;;35.30;65.10;;;;;;5230759;23;20076;-83
2023/08/21 12:28:24;;;;;;;8.93;5.88;;;35.50;66.30;;;;;;4905189;29;20040;-83
2023/08/21 12:30:53;;;;;;;7.60;5.20;;;35.50;63.60;;;;;;4905017;29;20119;-84
2023/08/21 12:33:22;;;;;;;9.75;5.63;;;35.40;62.80;;;;;;4897247;29;20112;-84
2023/08/21 12:35:52;;;;;;;7.40;4.65;;;35.50;64.80;;;;;;4914084;29;20131;-84
2023/08/21 12:38:21;;;;;;;6.95;5.28;;;35.40;63.90;;;;;;4897655;29;20049;-85
2023/08/21 12:41:06;;;;;;;9.73;5.03;;;35.00;64.60;;;;;;4909641;29;20044;-84
2023/08/21 12:50:22;;;;;;;10.88;6.35;;;33.90;65.90;;;;;;5155319;23;20073;-83
2023/08/21 12:53:05;;;;;;;7.55;6.10;;;33.50;66.80;;;;;;4922348;29;20400;-85
2023/08/21 12:55:33;;;;;;;13.48;6.38;;;33.50;66.80;;;;;;4947160;29;20039;-84
2023/08/21 12:58:03;;;;;;;7.70;5.22;;;34.10;67.80;;;;;;4939201;29;20051;-83
2023/08/21 13:00:48;;;;;;;8.98;5.28;;;34.50;65.80;;;;;;4940385;29;20059;-85
2023/08/21 13:03:33;;;;;;;7.20;4.93;;;34.90;64.90;;;;;;4922323;29;20341;-84
2023/08/21 13:06:30;;;;;;;8.20;5.53;;;34.90;64.30;;;;;;4927898;29;20107;-85
2023/08/21 13:09:21;;;;;;;13.07;5.38;;;34.90;65.10;;;;;;4941947;29;20055;-84
2023/08/21 13:11:55;;;;;;;9.55;5.63;;;35.00;64.10;;;;;;4937862;29;20047;-84
2023/08/21 13:14:32;;;;;;;7.80;5.20;;;35.10;63.60;;;;;;4968804;29;20047;-85
2023/08/21 13:17:37;;;;;;;7.85;5.20;;;35.10;63.20;;;;;;4953556;29;20058;-84
2023/08/21 13:20:22;;;;;;;8.70;5.43;;;35.10;63.20;;;;;;4941253;29;20068;-83
2023/08/21 13:22:57;;;;;;;7.30;5.20;;;35.30;62.80;;;;;;4930858;29;20020;-81
2023/08/21 13:25:35;;;;;;;7.07;5.30;;;35.50;62.50;;;;;;4959267;29;20055;-82